Terminal Aerodrome Forecast
Issued by NWS Huntsville, AL

Home | Current Version | Previous Version | Text Only | Print | Product List | Glossary On
Versions: 1 2 3 4 5 6 7 8 9 10 11 12 13 14 15 16
000
FTUS44 KHUN 192327
TAFMSL
TAF
KMSL 192327Z 2000/2024 17010KT P6SM SCT030 BKN080
     FM201000 16009KT P6SM BKN025 BKN080
     FM201400 18013G20KT P6SM BKN025 BKN080
     FM201800 18014G20KT P6SM SCT025 BKN080=

USA.gov is the U.S. government's official web portal to all federal, state and local government web resources and services.